Time;durP1;ratioP1;P1;durP2;ratioP2;P2;SDS_P1;SDS_P2;PMS_P1;PMS_P2;Temp;Humidity;BMP_temperature;BMP_pressure;BME280_temperature;BME280_humidity;BME280_pressure;Samples;Min_cycle;Max_cycle;Signal;HPM_P1;HPM_P2
2023/06/19 00:00:43;;;;;;;;;;;;;;;20.31;100.00;99402.38;5015430;28;807;-55
2023/06/19 00:03:10;;;;;;;;;;;;;;;;;;5015475;28;811;-55
2023/06/19 00:05:36;;;;;;;;;;;;;;;20.33;100.00;99404.69;5015271;28;851;-54
2023/06/19 00:08:05;;;;;;;;;;;;;;;20.34;100.00;99397.81;5015429;28;1949;-55
2023/06/19 00:10:31;;;;;;;;;;;;;;;20.33;100.00;99401.88;5015357;28;957;-54
2023/06/19 00:12:58;;;;;;;;;;;;;;;20.30;100.00;99403.59;5015232;28;807;-53
2023/06/19 00:15:25;;;;;;;;;;;;;;;20.28;100.00;99391.31;5015155;28;897;-53
2023/06/19 00:17:51;;;;;;;;;;;;;;;20.27;100.00;99398.97;5015136;28;857;-53
2023/06/19 00:20:18;;;;;;;;;;;;;;;20.27;100.00;99396.16;5015095;28;815;-54
2023/06/19 00:22:51;;;;;;;;;;;;;;;20.27;100.00;99396.16;5014948;28;861;-54
2023/06/19 00:25:19;;;;;;;;;;;;;;;20.27;100.00;99398.16;5015015;28;893;-55
2023/06/19 00:27:46;;;;;;;;;;;;;;;20.27;100.00;99395.38;5015047;28;1894;-52
2023/06/19 00:30:13;;;;;;;;;;;;;;;20.27;100.00;99396.16;5015240;28;856;-53
2023/06/19 00:32:50;;;;;;;;;;;;;;;20.28;100.00;99396.94;5014600;28;1263;-54
2023/06/19 00:35:18;;;;;;;;;;;;;;;20.30;100.00;99398.00;5014817;28;803;-55
2023/06/19 00:37:44;;;;;;;;;;;;;;;20.31;100.00;99405.19;5014823;28;831;-54
2023/06/19 00:40:32;;;;;;;;;;;;;;;20.33;100.00;99401.88;5014761;28;835;-55
2023/06/19 00:42:59;;;;;;;;;;;;;;;20.32;100.00;99408.75;5014573;28;1509;-55
2023/06/19 00:45:26;;;;;;;;;;;;;;;20.31;100.00;99401.56;5014651;28;851;-53
2023/06/19 00:47:53;;;;;;;;;;;;;;;20.31;100.00;99404.38;5014487;28;1906;-54
2023/06/19 00:50:21;;;;;;;;;;;;;;;20.28;100.00;99403.31;5014524;28;799;-56
2023/06/19 00:52:48;;;;;;;;;;;;;;;20.30;100.00;99405.66;5014446;28;866;-54
2023/06/19 00:55:15;;;;;;;;;;;;;;;20.30;100.00;99409.22;5014450;28;838;-54
2023/06/19 00:57:42;;;;;;;;;;;;;;;;;;5014443;28;811;-55
2023/06/19 01:00:12;;;;;;;;;;;;;;;20.39;100.00;99408.38;5014332;28;862;-55
2023/06/19 01:02:39;;;;;;;;;;;;;;;20.42;100.00;99407.44;5013656;28;850;-55
2023/06/19 01:05:05;;;;;;;;;;;;;;;20.47;100.00;99403.94;5014291;28;842;-54
2023/06/19 01:08:00;;;;;;;;;;;;;;;20.47;100.00;99405.97;5014326;28;1940;-54
2023/06/19 01:10:35;;;;;;;;;;;;;;;20.51;100.00;99404.53;5014134;28;1148;-55
2023/06/19 01:13:06;;;;;;;;;;;;;;;20.55;100.00;99404.38;5014310;28;866;-54
2023/06/19 01:15:33;;;;;;;;;;;;;;;20.60;100.00;99393.25;5013293;28;798;-56
2023/06/19 01:18:00;;;;;;;;;;;;;;;20.62;100.00;99406.81;5014041;28;811;-53
2023/06/19 01:20:28;;;;;;;;;;;;;;;20.63;100.00;99399.94;5014016;28;878;-56
2023/06/19 01:22:56;;;;;;;;;;;;;;;20.68;100.00;99398.50;5013955;28;807;-56
2023/06/19 01:25:25;;;;;;;;;;;;;;;20.68;100.00;99407.69;5013749;28;799;-55
2023/06/19 01:27:52;;;;;;;;;;;;;;;20.67;100.00;99403.31;5014043;28;1886;-55
2023/06/19 01:30:19;;;;;;;;;;;;;;;20.66;100.00;99401.78;5013807;28;811;-55
2023/06/19 01:32:52;;;;;;;;;;;;;;;20.66;100.00;99406.63;5013419;28;1408;-55
2023/06/19 01:35:21;;;;;;;;;;;;;;;20.66;100.00;99407.41;5013694;28;800;-55
2023/06/19 01:37:49;;;;;;;;;;;;;;;20.67;100.00;99402.56;5013554;28;843;-55
2023/06/19 01:40:17;;;;;;;;;;;;;;;20.63;100.00;99399.94;5013599;28;799;-55
2023/06/19 01:42:44;;;;;;;;;;;;;;;20.63;100.00;99401.97;5013829;28;878;-53
2023/06/19 01:45:11;;;;;;;;;;;;;;;20.66;100.00;99398.22;5013439;28;842;-54
2023/06/19 01:47:38;;;;;;;;;;;;;;;20.66;100.00;99412.25;5013380;28;1938;-54
2023/06/19 01:50:05;;;;;;;;;;;;;;;20.64;100.00;99404.31;5013391;28;811;-54
2023/06/19 01:52:32;;;;;;;;;;;;;;;20.69;100.00;99419.69;5013545;28;799;-55
2023/06/19 01:54:58;;;;;;;;;;;;;;;20.68;100.00;99409.75;5013240;28;795;-56
2023/06/19 01:57:25;;;;;;;;;;;;;;;20.72;100.00;99411.09;5013341;28;862;-55
2023/06/19 01:59:52;;;;;;;;;;;;;;;20.72;100.00;99407.53;5013178;28;811;-56
2023/06/19 02:02:19;;;;;;;;;;;;;;;20.72;100.00;99413.91;5013299;28;866;-55
2023/06/19 02:04:46;;;;;;;;;;;;;;;20.74;100.00;99417.00;5013043;28;865;-55
2023/06/19 02:07:12;;;;;;;;;;;;;;;20.78;100.00;99405.56;5013017;28;1949;-54
2023/06/19 02:09:40;;;;;;;;;;;;;;;20.85;100.00;99405.19;5013083;28;877;-55
2023/06/19 02:12:08;;;;;;;;;;;;;;;20.89;100.00;99402.97;5013421;28;1097;-54
2023/06/19 02:14:35;;;;;;;;;;;;;;;20.95;100.00;99417.09;5011996;28;854;-55
2023/06/19 02:17:01;;;;;;;;;;;;;;;20.98;100.00;99410.53;5012944;28;882;-55
2023/06/19 02:19:28;;;;;;;;;;;;;;;20.96;100.00;99415.88;5012830;28;901;-57
2023/06/19 02:21:54;;;;;;;;;;;;;;;20.99;100.00;99412.88;5013115;28;823;-56
2023/06/19 02:24:21;;;;;;;;;;;;;;;21.00;100.00;99419.25;5012622;28;873;-55
2023/06/19 02:26:48;;;;;;;;;;;;;;;20.97;100.00;99412.59;5012693;28;859;-55
2023/06/19 02:29:14;;;;;;;;;;;;;;;20.94;100.00;99416.34;5012620;28;1886;-55
2023/06/19 02:31:42;;;;;;;;;;;;;;;20.92;100.00;99415.28;5012449;28;1294;-56
2023/06/19 02:34:09;;;;;;;;;;;;;;;20.92;100.00;99415.28;5012661;28;822;-56
2023/06/19 02:36:36;;;;;;;;;;;;;;;20.90;100.00;99426.22;5012538;28;859;-53
2023/06/19 02:39:06;;;;;;;;;;;;;;;20.86;100.00;99412.34;5012611;28;831;-55
2023/06/19 02:41:32;;;;;;;;;;;;;;;20.80;100.00;99417.09;5012524;28;874;-56
2023/06/19 02:43:59;;;;;;;;;;;;;;;20.79;100.00;99421.94;5012581;28;831;-56
2023/06/19 02:58:37;;;;;;;;;;;;;;;20.76;100.00;99425.72;5012513;28;598;-55
2023/06/19 03:01:08;;;;;;;;;;;;;;;20.77;100.00;99430.06;5012210;28;862;-55
2023/06/19 03:03:37;;;;;;;;;;;;;;;20.75;100.00;99423.41;5012210;28;834;-54
2023/06/19 03:06:07;;;;;;;;;;;;;;;20.72;100.00;99424.38;5010720;28;2063;-54
2023/06/19 03:08:35;;;;;;;;;;;;;;;20.71;100.00;99429.19;5012336;28;1893;-55
2023/06/19 03:11:05;;;;;;;;;;;;;;;20.70;100.00;99433.25;5012279;28;911;-55
2023/06/19 03:13:55;;;;;;;;;;;;;;;20.69;100.00;99436.53;5012056;28;791;-55
2023/06/19 03:16:22;;;;;;;;;;;;;;;20.70;100.00;99438.88;5006456;28;1249;-55
2023/06/19 03:18:49;;;;;;;;;;;;;;;20.74;100.00;99438.69;5011887;28;934;-55
2023/06/19 03:21:19;;;;;;;;;;;;;;;20.76;100.00;99445.38;5011931;28;819;-54
2023/06/19 03:23:46;;;;;;;;;;;;;;;20.80;100.00;99442.38;5011825;28;804;-53
2023/06/19 03:26:13;;;;;;;;;;;;;;;20.85;100.00;99438.91;5011481;28;819;-55
2023/06/19 03:28:39;;;;;;;;;;;;;;;20.91;100.00;99450.22;5011796;28;1974;-54
2023/06/19 03:31:06;;;;;;;;;;;;;;;20.92;100.00;99452.56;5011559;28;1302;-55
2023/06/19 03:33:33;;;;;;;;;;;;;;;20.93;100.00;99456.94;5011839;28;846;-55
2023/06/19 03:36:00;;;;;;;;;;;;;;;20.96;100.00;99458.00;5011814;28;819;-55
2023/06/19 03:38:27;;;;;;;;;;;;;;;20.99;100.00;99471.06;5011706;28;829;-54
2023/06/19 03:40:53;;;;;;;;;;;;;;;21.01;100.00;99462.94;5011715;28;906;-56
2023/06/19 03:43:20;;;;;;;;;;;;;;;21.07;100.00;99458.19;5011679;28;795;-56
2023/06/19 03:45:46;;;;;;;;;;;;;;;21.13;100.00;99469.53;5011727;28;994;-55
2023/06/19 03:48:13;;;;;;;;;;;;;;;21.15;100.00;99461.41;5011538;28;1918;-55
2023/06/19 03:50:40;;;;;;;;;;;;;;;21.21;100.00;99457.44;5011810;28;830;-54
2023/06/19 03:53:07;;;;;;;;;;;;;;;21.28;100.00;99458.31;5011670;28;831;-54
2023/06/19 03:55:34;;;;;;;;;;;;;;;21.34;100.00;99459.19;5011838;28;854;-55
2023/06/19 03:58:00;;;;;;;;;;;;;;;21.32;100.00;99459.66;5011552;28;851;-55
2023/06/19 04:00:26;;;;;;;;;;;;;;;21.32;100.00;99451.22;5011574;28;808;-55
2023/06/19 04:02:53;;;;;;;;;;;;;;;21.36;100.00;99460.25;5011470;28;854;-56
2023/06/19 04:05:20;;;;;;;;;;;;;;;21.44;100.00;99460.63;5011538;28;870;-55
2023/06/19 04:07:47;;;;;;;;;;;;;;;21.43;100.00;99445.03;5011417;28;1949;-55
2023/06/19 04:10:14;;;;;;;;;;;;;;;21.42;100.00;99451.91;5011483;28;919;-55
2023/06/19 04:12:41;;;;;;;;;;;;;;;21.36;100.00;99442.59;5011349;28;899;-56
2023/06/19 04:15:08;;;;;;;;;;;;;;;21.35;100.00;99446.66;5011306;28;831;-55
2023/06/19 04:17:34;;;;;;;;;;;;;;;21.33;100.00;99449.19;5011409;28;881;-53
2023/06/19 04:20:01;;;;;;;;;;;;;;;21.32;100.00;99445.59;5011341;28;799;-56
2023/06/19 04:22:28;;;;;;;;;;;;;;;21.30;100.00;99441.75;5011242;28;1018;-56
2023/06/19 04:24:55;;;;;;;;;;;;;;;21.24;100.00;99436.00;5011630;28;816;-56
2023/06/19 04:27:22;;;;;;;;;;;;;;;21.17;100.00;99433.59;5011137;28;1890;-55
2023/06/19 04:29:52;;;;;;;;;;;;;;;21.24;100.00;99430.38;5011432;28;855;-55
2023/06/19 04:32:19;;;;;;;;;;;;;;;21.43;100.00;99439.41;5011023;28;1266;-56
2023/06/19 04:34:45;;;;;;;;;;;;;;;21.57;100.00;99429.41;5011238;28;866;-56
2023/06/19 04:37:12;;;;;;;;;;;;;;;21.74;100.00;99432.47;5011930;28;823;-56
2023/06/19 04:39:41;;;;;;;;;;;;;;;21.80;100.00;99433.34;5014756;28;795;-56
2023/06/19 04:42:08;;;;;;;;;;;;;;;21.55;100.00;99426.31;4997068;28;1358;-56
2023/06/19 04:56:45;;;;;;;;;;;;;;;21.32;100.00;99423.13;5014794;28;602;-56
2023/06/19 04:59:12;;;;;;;;;;;;;;;21.32;100.00;99425.94;5014444;28;822;-57
2023/06/19 05:01:40;;;;;;;;;;;;;;;21.39;100.00;99433.97;5013085;28;1490;-56
2023/06/19 05:16:19;;;;;;;;;;;;;;;21.56;100.00;99453.94;5015053;28;613;-55
2023/06/19 05:21:47;;;;;;;;;;;;;;;21.77;100.00;99468.84;5013974;28;609;-53
2023/06/19 05:24:14;;;;;;;;;;;;;;;22.02;100.00;99466.66;5013985;28;815;-54
2023/06/19 05:26:41;;;;;;;;;;;;;;;22.00;100.00;99469.19;5013831;28;815;-56
2023/06/19 05:29:08;;;;;;;;;;;;;;;22.01;100.00;99467.91;5012414;28;1918;-56
2023/06/19 05:31:38;;;;;;;;;;;;;;;21.92;100.00;99468.03;5013670;28;1244;-56
2023/06/19 05:34:07;;;;;;;;;;;;;;;21.90;100.00;99457.28;5013754;28;807;-55
2023/06/19 05:39:36;;;;;;;;;;;;;;;22.02;100.00;99464.63;5013719;28;657;-55
2023/06/19 05:42:03;;;;;;;;;;;;;;;22.08;100.00;99455.47;5013573;28;886;-55
2023/06/19 05:44:29;;;;;;;;;;;;;;;22.18;100.00;99457.66;5013545;28;807;-56
2023/06/19 05:46:57;;;;;;;;;;;;;;;22.30;100.00;99469.88;5013453;28;917;-56
2023/06/19 05:49:26;;;;;;;;;;;;;;;22.42;100.00;99465.16;5013154;28;1907;-56
2023/06/19 05:51:51;;;;;;;;;;;;;;;22.24;100.00;99477.47;5013218;28;815;-55
2023/06/19 05:54:18;;;;;;;;;;;;;;;22.09;100.00;99463.44;5013263;28;1226;-53
2023/06/19 05:56:46;;;;;;;;;;;;;;;22.18;100.00;99470.97;5013357;28;819;-56
2023/06/19 06:02:18;;;;;;;;;;;;;;;22.87;100.00;99473.34;5013217;28;626;-55
2023/06/19 06:07:47;;;;;;;;;;;;;;;24.73;84.62;99454.97;5012965;28;1891;-54
2023/06/19 06:10:16;;;;;;;;;;;;;;;25.43;77.26;99462.59;5013101;28;1077;-53
2023/06/19 06:12:43;;;;;;;;;;;;;;;24.64;82.27;99470.09;5012914;28;882;-54
2023/06/19 06:15:11;;;;;;;;;;;;;;;24.02;85.87;99479.00;4995226;28;1472;-55
2023/06/19 06:17:37;;;;;;;;;;;;;;;23.52;89.96;99482.22;4995169;28;1308;-54
2023/06/19 06:20:12;;;;;;;;;;;;;;;23.31;91.89;99480.75;5012818;28;799;-54
2023/06/19 06:22:42;;;;;;;;;;;;;;;23.11;92.45;99473.13;5012850;28;882;-56
2023/06/19 06:25:10;;;;;;;;;;;;;;;22.90;93.83;99470.34;5012774;28;811;-55
2023/06/19 06:27:37;;;;;;;;;;;;;;;22.88;95.05;99475.69;5012746;28;1951;-54
2023/06/19 06:30:04;;;;;;;;;;;;;;;22.86;94.51;99477.47;5012847;28;859;-55
2023/06/19 06:32:31;;;;;;;;;;;;;;;22.91;93.13;99479.56;5012408;28;1464;-54
2023/06/19 06:34:58;;;;;;;;;;;;;;;22.84;92.55;99490.00;5012605;28;902;-54
2023/06/19 06:37:25;;;;;;;;;;;;;;;22.83;91.86;99479.22;5012490;28;925;-54
2023/06/19 06:39:52;;;;;;;;;;;;;;;22.93;91.76;99474.19;5012478;28;831;-56
2023/06/19 06:42:19;;;;;;;;;;;;;;;22.94;90.45;99490.63;5012539;28;788;-56
2023/06/19 06:44:46;;;;;;;;;;;;;;;22.94;89.29;99489.84;5012384;28;850;-55
2023/06/19 06:47:13;;;;;;;;;;;;;;;22.99;88.78;99508.84;5012714;28;885;-56
2023/06/19 06:49:42;;;;;;;;;;;;;;;22.95;89.16;99480.88;5012220;28;819;-54
2023/06/19 06:52:10;;;;;;;;;;;;;;;22.98;88.31;99490.38;5012310;28;874;-55
2023/06/19 06:54:36;;;;;;;;;;;;;;;22.92;88.61;99484.69;5012264;28;791;-56
2023/06/19 06:57:05;;;;;;;;;;;;;;;22.79;87.76;99501.97;5012218;28;858;-56
2023/06/19 06:59:31;;;;;;;;;;;;;;;22.88;88.63;99491.81;5011998;28;787;-54
2023/06/19 07:01:59;;;;;;;;;;;;;;;22.98;87.98;99487.56;5011949;28;1018;-56
2023/06/19 07:04:26;;;;;;;;;;;;;;;23.03;87.91;99484.06;5012626;28;767;-54
2023/06/19 07:06:53;;;;;;;;;;;;;;;23.17;87.84;99499.31;5012788;28;878;-54
2023/06/19 07:09:21;;;;;;;;;;;;;;;23.23;86.15;99500.16;5012538;28;1882;-56
2023/06/19 07:23:59;;;;;;;;;;;;;;;25.79;70.08;99499.59;5012270;28;602;-53
2023/06/19 07:26:25;;;;;;;;;;;;;;;27.18;63.32;99496.06;5011815;28;871;-55
2023/06/19 07:28:53;;;;;;;;;;;;;;;28.26;59.03;99488.22;5011749;28;1886;-54
2023/06/19 07:31:20;;;;;;;;;;;;;;;29.12;56.21;99494.41;5011484;28;1233;-55
2023/06/19 07:33:46;;;;;;;;;;;;;;;29.84;54.05;99491.72;5011786;28;807;-54
2023/06/19 07:36:15;;;;;;;;;;;;;;;28.59;55.21;99503.38;5011714;28;859;-56
2023/06/19 07:38:46;;;;;;;;;;;;;;;27.73;59.91;99512.47;5011695;28;827;-54
2023/06/19 07:41:13;;;;;;;;;;;;;;;28.35;58.01;99512.66;5011961;28;807;-55
2023/06/19 07:46:43;;;;;;;;;;;;;;;27.64;60.26;99519.25;5008707;28;961;-54
2023/06/19 07:49:10;;;;;;;;;;;;;;;28.67;55.62;99503.53;5011462;28;1993;-56
2023/06/19 07:51:36;;;;;;;;;;;;;;;28.87;54.51;99502.25;5011454;28;873;-54
2023/06/19 07:54:04;;;;;;;;;;;;;;;28.98;54.52;99504.94;5011586;28;866;-56
2023/06/19 07:56:35;;;;;;;;;;;;;;;29.09;54.18;99509.69;5011559;28;882;-57
2023/06/19 07:59:03;;;;;;;;;;;;;;;29.40;54.04;99504.59;5012284;28;783;-56
2023/06/19 08:01:28;;;;;;;;;;;;;;;30.30;51.36;99508.81;5011720;28;823;-57
2023/06/19 08:03:55;;;;;;;;;;;;;;;30.41;49.88;99502.09;5011547;28;823;-57
2023/06/19 08:06:22;;;;;;;;;;;;;;;30.24;50.54;99517.41;5011443;28;866;-56
2023/06/19 08:08:49;;;;;;;;;;;;;;;29.85;50.10;99516.06;5011374;28;1886;-56
2023/06/19 08:11:16;;;;;;;;;;;;;;;29.66;51.74;99512.44;5011710;28;1054;-56
2023/06/19 08:13:42;;;;;;;;;;;;;;;28.70;54.44;99525.97;5014521;28;819;-57
2023/06/19 08:16:10;;;;;;;;;;;;;;;29.51;52.37;99527.97;5015184;28;835;-57
2023/06/19 08:18:39;;;;;;;;;;;;;;;28.86;53.80;99524.22;5014942;28;894;-57
2023/06/19 08:33:17;;;;;;;;;;;;;;;27.08;59.94;99546.69;5011946;28;1502;-56
2023/06/19 08:35:46;;;;;;;;;;;;;;;27.22;58.40;99561.06;4997296;28;1220;-57
2023/06/19 08:38:13;;;;;;;;;;;;;;;27.05;59.48;99566.78;5014713;28;926;-56
2023/06/19 08:40:41;;;;;;;;;;;;;;;27.38;59.97;99559.44;5014650;28;811;-57
2023/06/19 08:43:08;;;;;;;;;;;;;;;27.78;58.13;99572.06;5014777;28;910;-57
2023/06/19 08:45:35;;;;;;;;;;;;;;;27.70;57.38;99566.16;5015213;28;775;-56
2023/06/19 08:48:03;;;;;;;;;;;;;;;26.71;60.04;99572.59;5013593;28;1907;-56
2023/06/19 08:50:31;;;;;;;;;;;;;;;26.19;62.37;99578.88;5014838;28;898;-56
2023/06/19 08:52:59;;;;;;;;;;;;;;;25.62;63.27;99595.06;5015040;28;851;-56
2023/06/19 08:55:26;;;;;;;;;;;;;;;25.49;64.99;99589.88;4996873;28;1456;-56
2023/06/19 08:57:52;;;;;;;;;;;;;;;25.70;65.24;99593.25;5014524;28;815;-56
2023/06/19 09:00:27;;;;;;;;;;;;;;;26.28;63.84;99595.59;5014440;28;788;-56
2023/06/19 09:03:00;;;;;;;;;;;;;;;26.59;61.96;99594.56;5014372;28;835;-56
2023/06/19 09:05:26;;;;;;;;;;;;;;;26.42;61.23;99593.78;5014277;28;854;-56
2023/06/19 09:07:57;;;;;;;;;;;;;;;26.40;61.16;99593.53;5014227;28;1903;-57
2023/06/19 09:10:24;;;;;;;;;;;;;;;26.47;60.67;99599.44;5014287;28;948;-57
2023/06/19 09:13:17;;;;;;;;;;;;;;;26.64;60.58;99601.50;5014131;28;831;-55
2023/06/19 09:15:43;;;;;;;;;;;;;;;27.38;58.74;99594.25;5012407;28;1503;-56
2023/06/19 09:18:14;;;;;;;;;;;;;;;27.90;57.18;99595.47;5014148;28;862;-56
2023/06/19 09:20:44;;;;;;;;;;;;;;;28.20;56.69;99597.53;5013935;28;922;-56
2023/06/19 09:23:11;;;;;;;;;;;;;;;28.24;56.04;99607.31;5013519;28;807;-56
2023/06/19 09:25:45;;;;;;;;;;;;;;;27.96;56.66;99616.06;5013938;28;823;-56
2023/06/19 09:28:19;;;;;;;;;;;;;;;27.90;56.31;99616.09;5013777;28;1920;-56
2023/06/19 09:30:56;;;;;;;;;;;;;;;27.48;56.64;99626.72;5013949;28;815;-57
2023/06/19 09:33:25;;;;;;;;;;;;;;;27.04;58.02;99617.09;5013469;28;1484;-54
2023/06/19 09:35:52;;;;;;;;;;;;;;;26.98;58.50;99624.06;5013743;28;888;-56
2023/06/19 09:38:20;;;;;;;;;;;;;;;27.04;58.56;99622.00;5013702;28;816;-57
2023/06/19 10:10:27;;;;;;;;;;;;;;;29.20;54.50;99605.53;5897814;23;1642;-56
2023/06/19 10:12:55;;;;;;;;;;;;;;;29.49;53.57;99603.84;4993678;28;848;-56
2023/06/19 10:15:21;;;;;;;;;;;;;;;29.35;53.51;99603.00;4993919;28;842;-55
2023/06/19 10:17:52;;;;;;;;;;;;;;;29.47;52.82;99615.78;4994082;28;814;-56
2023/06/19 10:20:32;;;;;;;;;;;;;;;29.62;52.15;99612.44;4993284;28;831;-56
2023/06/19 10:22:59;;;;;;;;;;;;;;;29.41;52.24;99611.47;4993211;28;855;-55
2023/06/19 10:25:29;;;;;;;;;;;;;;;29.24;52.72;99612.44;4993478;28;827;-54
2023/06/19 10:27:57;;;;;;;;;;;;;;;29.08;53.02;99617.03;4993509;28;1972;-53
2023/06/19 10:30:24;;;;;;;;;;;;;;;29.24;53.19;99612.44;4993344;28;902;-55
2023/06/19 10:32:51;;;;;;;;;;;;;;;29.21;52.90;99615.59;4993225;28;935;-55
2023/06/19 10:35:24;;;;;;;;;;;;;;;28.89;52.27;99593.47;4992221;28;1105;-55
2023/06/19 10:37:51;;;;;;;;;;;;;;;29.15;51.80;99597.81;4992878;28;926;-54
2023/06/19 10:40:17;;;;;;;;;;;;;;;29.28;52.62;99595.84;4992861;28;850;-56
2023/06/19 10:42:44;;;;;;;;;;;;;;;28.27;57.25;99594.91;4992946;28;885;-55
2023/06/19 10:45:12;;;;;;;;;;;;;;;28.85;56.41;99590.19;4992963;28;811;-56
2023/06/19 10:47:40;;;;;;;;;;;;;;;30.37;51.34;99576.53;4975242;28;1922;-55
2023/06/19 10:50:10;;;;;;;;;;;;;;;31.34;48.43;99576.91;4992799;28;893;-56
2023/06/19 10:52:39;;;;;;;;;;;;;;;31.26;48.25;99581.78;4992758;28;838;-54
2023/06/19 10:55:07;;;;;;;;;;;;;;;31.27;47.86;99574.72;4992861;28;831;-54
2023/06/19 10:57:34;;;;;;;;;;;;;;;31.80;47.25;99565.22;4992719;28;898;-54
2023/06/19 11:00:00;;;;;;;;;;;;;;;31.17;47.07;99556.53;4992625;28;811;-52
2023/06/19 11:02:27;;;;;;;;;;;;;;;29.89;49.87;99570.63;4992713;28;870;-54
2023/06/19 11:04:54;;;;;;;;;;;;;;;28.87;52.22;99576.19;4992571;28;850;-55
2023/06/19 11:07:23;;;;;;;;;;;;;;;28.46;54.01;99563.69;4975068;28;890;-54
2023/06/19 11:09:49;;;;;;;;;;;;;;;27.49;57.03;99559.34;4992355;28;1091;-56
2023/06/19 11:12:20;;;;;;;;;;;;;;;26.23;64.38;99557.50;5007162;28;1393;-56
2023/06/19 11:14:50;;;;;;;;;;;;;;;27.43;62.84;99561.47;5011926;28;938;-55
2023/06/19 11:17:20;;;;;;;;;;;;;;;29.30;55.76;99555.47;5012696;28;791;-55
2023/06/19 11:19:47;;;;;;;;;;;;;;;30.59;51.79;99549.69;5011923;28;842;-56
2023/06/19 11:22:14;;;;;;;;;;;;;;;32.24;48.35;99547.50;5011864;28;874;-56
2023/06/19 11:24:45;;;;;;;;;;;;;;;33.86;44.62;99546.06;5011899;28;918;-56
2023/06/19 11:27:27;;;;;;;;;;;;;;;34.98;40.26;99550.69;5000234;28;854;-56
2023/06/19 11:29:59;;;;;;;;;;;;;;;35.49;38.25;99545.09;5012330;28;787;-56
2023/06/19 11:32:33;;;;;;;;;;;;;;;34.85;38.62;99545.22;5011746;28;940;-57
2023/06/19 11:35:06;;;;;;;;;;;;;;;32.53;42.73;99549.06;4994339;28;843;-56
2023/06/19 11:37:32;;;;;;;;;;;;;;;32.30;43.77;99550.97;5011748;28;881;-56
2023/06/19 11:39:59;;;;;;;;;;;;;;;33.20;43.10;99553.38;5011718;28;870;-57
2023/06/19 11:42:26;;;;;;;;;;;;;;;32.80;43.89;99545.19;5011605;28;930;-56
2023/06/19 11:44:56;;;;;;;;;;;;;;;32.48;44.59;99547.09;5011652;28;811;-56
2023/06/19 11:47:23;;;;;;;;;;;;;;;31.39;46.82;99551.63;5014949;28;775;-56
2023/06/19 11:49:51;;;;;;;;;;;;;;;30.51;48.37;99554.50;5015740;28;1906;-56
2023/06/19 11:52:17;;;;;;;;;;;;;;;29.80;50.49;99553.94;5016349;28;852;-56
2023/06/19 11:54:44;;;;;;;;;;;;;;;29.26;52.50;99560.69;5015821;28;862;-55
2023/06/19 11:57:12;;;;;;;;;;;;;;;29.40;53.11;99565.13;5016361;28;814;-55
2023/06/19 11:59:42;;;;;;;;;;;;;;;29.23;54.29;99556.88;4998110;28;1194;-55
2023/06/19 12:02:09;;;;;;;;;;;;;;;29.42;54.82;99553.97;4997853;28;850;-55
2023/06/19 12:04:36;;;;;;;;;;;;;;;29.21;55.94;99562.31;5015481;28;999;-55
2023/06/19 12:07:04;;;;;;;;;;;;;;;29.85;55.27;99555.16;5015464;28;904;-56
2023/06/19 12:09:31;;;;;;;;;;;;;;;30.96;52.08;99559.34;5015169;28;1947;-56
2023/06/19 12:11:59;;;;;;;;;;;;;;;29.97;54.00;99556.50;5015075;28;1285;-56
2023/06/19 12:14:26;;;;;;;;;;;;;;;28.89;56.19;99567.88;5015459;28;905;-56
2023/06/19 12:16:53;;;;;;;;;;;;;;;28.13;59.34;99559.13;5015213;28;853;-55
2023/06/19 12:19:20;;;;;;;;;;;;;;;27.77;60.60;99558.38;5015500;28;881;-55
2023/06/19 12:21:47;;;;;;;;;;;;;;;28.49;58.46;99553.38;5015398;28;806;-54
2023/06/19 12:24:14;;;;;;;;;;;;;;;29.37;56.01;99546.31;5015013;28;909;-56
2023/06/19 12:26:41;;;;;;;;;;;;;;;29.09;54.63;99540.97;5015208;28;1004;-57
2023/06/19 12:29:08;;;;;;;;;;;;;;;28.09;57.54;99553.72;5014907;28;1906;-56
2023/06/19 12:31:36;;;;;;;;;;;;;;;27.28;61.73;99556.91;5015031;28;802;-56
2023/06/19 12:34:03;;;;;;;;;;;;;;;26.95;63.86;99555.00;5015154;28;823;-56
2023/06/19 12:36:32;;;;;;;;;;;;;;;26.92;58.14;99558.88;5014956;28;898;-56
2023/06/19 12:39:00;;;;;;;;;;;;;;;26.79;56.80;99533.91;5014565;28;858;-57
2023/06/19 12:41:27;;;;;;;;;;;;;;;26.73;57.83;99552.25;5014739;28;815;-56
2023/06/19 12:43:54;;;;;;;;;;;;;;;26.57;58.81;99545.34;5014890;28;837;-56
2023/06/19 12:46:21;;;;;;;;;;;;;;;26.43;58.40;99533.75;5014736;28;803;-55
2023/06/19 12:48:50;;;;;;;;;;;;;;;26.84;57.23;99515.34;5014866;28;1894;-55
2023/06/19 12:51:17;;;;;;;;;;;;;;;27.55;55.29;99511.06;5014535;28;839;-55
2023/06/19 12:53:44;;;;;;;;;;;;;;;28.04;54.23;99509.13;5014583;28;795;-56
2023/06/19 12:56:11;;;;;;;;;;;;;;;28.23;53.95;99514.88;5014470;28;870;-56
2023/06/19 12:58:38;;;;;;;;;;;;;;;28.33;53.68;99514.50;5013549;28;881;-56
2023/06/19 13:01:05;;;;;;;;;;;;;;;28.53;52.84;99511.19;5014334;28;900;-56
2023/06/19 13:03:32;;;;;;;;;;;;;;;28.27;53.67;99518.19;5014237;28;870;-56
2023/06/19 13:05:59;;;;;;;;;;;;;;;27.79;55.19;99533.84;5014304;28;854;-56
2023/06/19 13:08:26;;;;;;;;;;;;;;;27.22;57.47;99541.97;5014050;28;1894;-56
2023/06/19 13:10:53;;;;;;;;;;;;;;;27.28;58.52;99542.72;5014215;28;1322;-56
2023/06/19 13:13:19;;;;;;;;;;;;;;;28.51;56.42;99545.06;5014224;28;814;-56
2023/06/19 13:15:46;;;;;;;;;;;;;;;29.88;52.91;99537.75;5014193;28;811;-56
2023/06/19 13:18:12;;;;;;;;;;;;;;;30.72;50.78;99531.78;5014142;28;861;-55
2023/06/19 13:20:38;;;;;;;;;;;;;;;30.70;50.76;99520.16;5014009;28;827;-56
2023/06/19 13:23:06;;;;;;;;;;;;;;;31.10;50.45;99531.53;5014035;28;838;-56
2023/06/19 13:25:33;;;;;;;;;;;;;;;31.48;49.75;99525.50;5013827;28;1134;-56
2023/06/19 13:27:59;;;;;;;;;;;;;;;31.95;47.52;99536.78;5013879;28;1965;-56
2023/06/19 13:30:26;;;;;;;;;;;;;;;32.14;45.25;99530.09;5013868;28;799;-57
2023/06/19 13:32:53;;;;;;;;;;;;;;;31.18;43.63;99525.91;5013803;28;873;-57
2023/06/19 13:35:21;;;;;;;;;;;;;;;30.52;45.59;99522.59;5013782;28;803;-57
2023/06/19 13:37:48;;;;;;;;;;;;;;;30.69;46.36;99513.69;5013592;28;885;-57
2023/06/19 13:40:15;;;;;;;;;;;;;;;30.93;45.91;99506.22;5013691;28;862;-57
2023/06/19 13:42:41;;;;;;;;;;;;;;;31.34;45.47;99510.47;5013658;28;858;-57
2023/06/19 13:45:08;;;;;;;;;;;;;;;31.49;45.58;99504.19;5013659;28;846;-57
2023/06/19 13:47:35;;;;;;;;;;;;;;;30.80;46.77;99501.28;5013420;28;1946;-56
2023/06/19 13:50:02;;;;;;;;;;;;;;;30.71;46.68;99493.19;5013429;28;862;-56
2023/06/19 13:52:28;;;;;;;;;;;;;;;30.78;46.21;99489.66;5013728;28;878;-56
2023/06/19 13:54:55;;;;;;;;;;;;;;;30.52;46.09;99490.47;5013448;28;913;-57
2023/06/19 13:57:22;;;;;;;;;;;;;;;30.30;46.69;99475.34;5013357;28;870;-56
2023/06/19 13:59:49;;;;;;;;;;;;;;;30.22;47.29;99470.84;5013278;28;1031;-56
2023/06/19 14:02:15;;;;;;;;;;;;;;;30.23;47.18;99464.56;5013141;28;870;-56
2023/06/19 14:04:43;;;;;;;;;;;;;;;30.30;47.60;99458.25;5013250;28;891;-57
2023/06/19 14:07:09;;;;;;;;;;;;;;;30.17;47.86;99466.78;5013444;28;857;-55
2023/06/19 14:09:37;;;;;;;;;;;;;;;29.87;48.80;99458.53;5012996;28;1894;-56
2023/06/19 14:12:04;;;;;;;;;;;;;;;29.95;49.49;99470.81;5012896;28;1420;-56
2023/06/19 14:14:31;;;;;;;;;;;;;;;29.59;50.06;99470.38;5013102;28;870;-56
2023/06/19 14:16:58;;;;;;;;;;;;;;;28.84;52.23;99483.41;5012927;28;906;-56
2023/06/19 14:19:25;;;;;;;;;;;;;;;28.33;55.49;99483.22;5013013;28;826;-56
2023/06/19 14:21:52;;;;;;;;;;;;;;;27.86;57.30;99490.69;5013088;28;984;-56
2023/06/19 14:24:19;;;;;;;;;;;;;;;27.59;58.58;99497.34;5012865;28;849;-56
2023/06/19 14:26:46;;;;;;;;;;;;;;;27.93;58.85;99485.72;5012898;28;814;-56
2023/06/19 14:29:15;;;;;;;;;;;;;;;28.84;57.24;99472.03;4995038;28;1981;-56
2023/06/19 14:31:42;;;;;;;;;;;;;;;29.47;55.05;99470.59;5012775;28;827;-56
2023/06/19 14:34:08;;;;;;;;;;;;;;;29.82;52.14;99465.88;5012699;28;898;-56
2023/06/19 14:36:37;;;;;;;;;;;;;;;30.01;50.03;99474.31;5012602;28;842;-57
2023/06/19 14:39:04;;;;;;;;;;;;;;;30.05;49.22;99468.31;5012449;28;890;-57
2023/06/19 14:41:31;;;;;;;;;;;;;;;30.17;48.79;99463.16;5012528;28;827;-56
2023/06/19 14:43:58;;;;;;;;;;;;;;;30.22;48.53;99468.75;5012600;28;850;-56
2023/06/19 14:46:24;;;;;;;;;;;;;;;30.19;49.24;99471.91;5012562;28;811;-56
2023/06/19 14:48:51;;;;;;;;;;;;;;;30.32;49.79;99472.72;5012403;28;1959;-56
2023/06/19 14:51:19;;;;;;;;;;;;;;;30.53;49.21;99472.81;4994697;28;902;-56